sensor_id;sensor_type;location;lat;lon;timestamp;P1;durP1;ratioP1;P2;durP2;ratioP2
72645;SDS011;60687;53.876;10.674;2022-08-21T00:00:53;5.37;;;1.53;;
72645;SDS011;60687;53.876;10.674;2022-08-21T00:32:31;7.38;;;2.03;;
72645;SDS011;60687;53.876;10.674;2022-08-21T00:53:39;8.47;;;2.30;;
72645;SDS011;60687;53.876;10.674;2022-08-21T01:04:16;6.50;;;2.35;;
72645;SDS011;60687;53.876;10.674;2022-08-21T01:25:24;6.97;;;2.10;;
72645;SDS011;60687;53.876;10.674;2022-08-21T01:35:38;7.82;;;2.70;;
72645;SDS011;60687;53.876;10.674;2022-08-21T01:45:59;8.60;;;2.60;;
72645;SDS011;60687;53.876;10.674;2022-08-21T01:56:31;6.30;;;2.13;;
72645;SDS011;60687;53.876;10.674;2022-08-21T02:06:51;8.03;;;2.80;;
72645;SDS011;60687;53.876;10.674;2022-08-21T02:17:07;7.72;;;2.95;;
72645;SDS011;60687;53.876;10.674;2022-08-21T02:27:17;8.37;;;2.80;;
72645;SDS011;60687;53.876;10.674;2022-08-21T02:37:27;10.03;;;2.47;;
72645;SDS011;60687;53.876;10.674;2022-08-21T02:47:31;8.02;;;2.55;;
72645;SDS011;60687;53.876;10.674;2022-08-21T02:57:33;7.97;;;2.50;;
72645;SDS011;60687;53.876;10.674;2022-08-21T03:07:37;7.17;;;2.73;;
72645;SDS011;60687;53.876;10.674;2022-08-21T03:17:40;7.63;;;2.83;;
72645;SDS011;60687;53.876;10.674;2022-08-21T03:27:43;8.45;;;2.90;;
72645;SDS011;60687;53.876;10.674;2022-08-21T03:37:46;8.13;;;2.80;;
72645;SDS011;60687;53.876;10.674;2022-08-21T03:47:54;11.00;;;3.40;;
72645;SDS011;60687;53.876;10.674;2022-08-21T03:57:58;7.78;;;2.47;;
72645;SDS011;60687;53.876;10.674;2022-08-21T04:08:02;8.27;;;2.93;;
72645;SDS011;60687;53.876;10.674;2022-08-21T04:18:06;7.43;;;2.60;;
72645;SDS011;60687;53.876;10.674;2022-08-21T04:28:09;7.18;;;2.88;;
72645;SDS011;60687;53.876;10.674;2022-08-21T04:38:12;7.90;;;2.60;;
72645;SDS011;60687;53.876;10.674;2022-08-21T04:48:17;7.50;;;2.67;;
72645;SDS011;60687;53.876;10.674;2022-08-21T04:58:24;9.32;;;2.58;;
72645;SDS011;60687;53.876;10.674;2022-08-21T05:08:31;7.22;;;2.67;;
72645;SDS011;60687;53.876;10.674;2022-08-21T05:18:35;7.07;;;2.10;;
72645;SDS011;60687;53.876;10.674;2022-08-21T05:28:39;6.43;;;2.10;;
72645;SDS011;60687;53.876;10.674;2022-08-21T05:38:41;7.95;;;2.33;;
72645;SDS011;60687;53.876;10.674;2022-08-21T05:48:45;6.53;;;2.50;;
72645;SDS011;60687;53.876;10.674;2022-08-21T05:58:47;7.90;;;2.30;;
72645;SDS011;60687;53.876;10.674;2022-08-21T06:08:51;6.03;;;2.35;;
72645;SDS011;60687;53.876;10.674;2022-08-21T06:18:58;6.47;;;2.27;;
72645;SDS011;60687;53.876;10.674;2022-08-21T06:29:04;8.63;;;2.87;;
72645;SDS011;60687;53.876;10.674;2022-08-21T06:39:12;6.00;;;2.10;;
72645;SDS011;60687;53.876;10.674;2022-08-21T06:49:16;7.53;;;2.10;;
72645;SDS011;60687;53.876;10.674;2022-08-21T06:59:19;7.37;;;1.83;;
72645;SDS011;60687;53.876;10.674;2022-08-21T07:09:22;6.67;;;1.80;;
72645;SDS011;60687;53.876;10.674;2022-08-21T07:19:25;5.93;;;1.65;;
72645;SDS011;60687;53.876;10.674;2022-08-21T07:29:29;5.30;;;1.50;;
72645;SDS011;60687;53.876;10.674;2022-08-21T07:39:34;6.40;;;1.40;;
72645;SDS011;60687;53.876;10.674;2022-08-21T07:49:40;5.65;;;1.45;;
72645;SDS011;60687;53.876;10.674;2022-08-21T07:59:42;6.87;;;1.77;;
72645;SDS011;60687;53.876;10.674;2022-08-21T08:09:46;5.43;;;1.53;;
72645;SDS011;60687;53.876;10.674;2022-08-21T08:19:49;6.32;;;1.70;;
72645;SDS011;60687;53.876;10.674;2022-08-21T08:29:55;5.90;;;1.60;;
72645;SDS011;60687;53.876;10.674;2022-08-21T08:39:59;6.00;;;1.50;;
72645;SDS011;60687;53.876;10.674;2022-08-21T08:50:05;7.57;;;1.40;;
72645;SDS011;60687;53.876;10.674;2022-08-21T09:55:16;7.63;;;1.43;;
72645;SDS011;60687;53.876;10.674;2022-08-21T10:05:53;6.95;;;1.65;;
72645;SDS011;60687;53.876;10.674;2022-08-21T10:37:05;6.65;;;1.50;;
72645;SDS011;60687;53.876;10.674;2022-08-21T10:47:28;7.23;;;1.60;;
72645;SDS011;60687;53.876;10.674;2022-08-21T10:57:38;7.27;;;1.40;;
72645;SDS011;60687;53.876;10.674;2022-08-21T11:07:43;6.13;;;1.05;;
72645;SDS011;60687;53.876;10.674;2022-08-21T11:17:52;7.30;;;1.70;;
72645;SDS011;60687;53.876;10.674;2022-08-21T11:28:02;7.27;;;1.30;;
72645;SDS011;60687;53.876;10.674;2022-08-21T16:22:45;4.57;;;1.13;;
72645;SDS011;60687;53.876;10.674;2022-08-21T19:57:54;6.00;;;1.73;;
72645;SDS011;60687;53.876;10.674;2022-08-21T21:17:38;7.73;;;1.67;;
72645;SDS011;60687;53.876;10.674;2022-08-21T22:21:13;7.23;;;1.97;;
72645;SDS011;60687;53.876;10.674;2022-08-21T23:05:34;6.63;;;1.73;;
